Time;durP1;ratioP1;P1;durP2;ratioP2;P2;SDS_P1;SDS_P2;PMS_P1;PMS_P2;Temp;Humidity;BMP_temperature;BMP_pressure;BME280_temperature;BME280_humidity;BME280_pressure;Samples;Min_cycle;Max_cycle;Signal;HPM_P1;HPM_P2
2023/01/12 00:00:05;;;;;;;9.23;2.10;;;7.80;99.90;;;8.21;100.00;98231.56;5056763;28;20967;-79
2023/01/12 00:02:35;;;;;;;10.10;2.50;;;7.80;99.90;;;8.22;100.00;98233.19;5060176;28;20460;-79
2023/01/12 00:05:08;;;;;;;9.33;1.60;;;7.80;99.90;;;8.22;100.00;98230.59;5054628;28;20989;-79
2023/01/12 00:07:38;;;;;;;9.63;2.00;;;7.80;99.90;;;8.26;100.00;98236.28;5058363;28;20500;-78
2023/01/12 00:10:10;;;;;;;9.60;2.47;;;7.80;99.90;;;8.21;100.00;98228.13;5056925;28;20550;-79
2023/01/12 00:12:42;;;;;;;17.60;3.93;;;7.80;99.90;;;8.22;100.00;98222.78;5056850;28;20461;-79
2023/01/12 00:15:13;;;;;;;13.40;2.30;;;7.80;99.90;;;8.26;100.00;98223.25;5054642;28;20453;-79
2023/01/12 00:17:43;;;;;;;7.57;1.97;;;7.80;99.90;;;8.24;100.00;98199.97;5059249;28;20900;-79
2023/01/12 00:20:14;;;;;;;9.83;2.53;;;7.90;99.90;;;8.27;100.00;98196.19;5057902;28;20468;-79
2023/01/12 00:22:44;;;;;;;20.47;2.37;;;7.90;99.90;;;8.26;100.00;98197.97;5056967;28;20476;-79
2023/01/12 00:25:15;;;;;;;13.03;2.20;;;7.90;99.90;;;8.25;100.00;98212.00;5055955;28;20517;-79
2023/01/12 00:27:48;;;;;;;8.23;2.30;;;7.80;99.90;;;8.25;100.00;98191.16;5056335;28;20970;-79
2023/01/12 00:30:19;;;;;;;8.53;2.07;;;7.80;99.90;;;8.25;100.00;98193.78;5055599;28;21366;-79
2023/01/12 00:32:49;;;;;;;13.17;1.90;;;7.70;99.90;;;8.28;100.00;98201.28;5055595;28;20499;-79
2023/01/12 00:35:20;;;;;;;8.23;2.93;;;7.80;99.90;;;8.27;100.00;98198.81;5054309;28;20891;-79
2023/01/12 00:37:49;;;;;;;7.60;1.93;;;7.90;99.90;;;8.25;100.00;98205.97;5054765;28;20518;-79
2023/01/12 00:40:20;;;;;;;9.00;2.00;;;7.90;99.90;;;8.20;100.00;98203.88;5056200;28;21243;-79
2023/01/12 00:45:39;;;;;;;12.93;2.47;;;7.80;99.90;;;8.18;100.00;98211.06;5058034;28;20994;-79
2023/01/12 00:48:11;;;;;;;11.53;2.57;;;7.80;99.90;;;8.14;100.00;98220.19;5055353;28;20478;-79
2023/01/12 00:50:42;;;;;;;15.60;2.47;;;7.70;99.90;;;8.14;100.00;98217.56;5055081;28;20473;-79
2023/01/12 00:53:13;;;;;;;5.37;2.37;;;7.70;99.90;;;8.11;100.00;98202.28;5056398;28;20457;-79
2023/01/12 00:55:44;;;;;;;12.97;2.10;;;7.70;99.90;;;8.11;100.00;98215.31;5058900;28;20469;-78
2023/01/12 00:58:16;;;;;;;7.07;1.57;;;7.70;99.90;;;8.13;100.00;98215.13;5056237;28;20465;-79
2023/01/12 01:00:46;;;;;;;10.07;1.97;;;7.70;99.90;;;8.11;100.00;98220.53;5057202;28;20963;-79
2023/01/12 01:03:16;;;;;;;6.90;1.90;;;7.70;99.90;;;8.05;100.00;98221.97;5058847;28;20488;-79
2023/01/12 01:05:45;;;;;;;16.63;2.50;;;7.60;99.90;;;8.06;100.00;98228.00;5058128;28;20460;-79
2023/01/12 01:08:16;;;;;;;3.70;1.67;;;7.60;99.90;;;8.05;100.00;98223.78;5058136;28;20460;-79
2023/01/12 01:10:45;;;;;;;8.60;2.20;;;7.60;99.90;;;8.05;100.00;98227.19;5058557;28;20479;-79
2023/01/12 01:13:16;;;;;;;9.40;2.00;;;7.60;99.90;;;8.10;100.00;98224.91;5052997;28;20464;-79
2023/01/12 01:15:46;;;;;;;9.33;2.43;;;7.70;99.90;;;8.10;100.00;98229.31;5056016;28;20480;-79
2023/01/12 01:18:16;;;;;;;8.13;1.93;;;7.70;99.90;;;8.11;100.00;98225.72;5054822;28;20564;-79
2023/01/12 01:20:47;;;;;;;9.50;2.60;;;7.70;99.90;;;8.15;100.00;98231.41;5057114;28;20487;-79
2023/01/12 01:23:17;;;;;;;4.53;1.80;;;7.70;99.90;;;8.15;100.00;98219.22;5057463;28;20523;-79
2023/01/12 01:25:46;;;;;;;13.93;1.90;;;7.70;99.90;;;8.15;100.00;98224.41;5056311;28;20453;-79
2023/01/12 01:28:18;;;;;;;11.13;2.30;;;7.70;99.90;;;8.14;100.00;98230.59;5052862;28;20468;-79
2023/01/12 01:30:49;;;;;;;11.70;2.13;;;7.70;99.90;;;8.16;100.00;98222.63;5057597;28;20492;-79
2023/01/12 01:33:19;;;;;;;5.47;2.03;;;7.80;99.90;;;8.12;100.00;98224.75;5056073;28;20464;-79
2023/01/12 01:35:50;;;;;;;11.43;1.70;;;7.70;99.90;;;8.14;100.00;98224.56;5056172;28;21125;-79
2023/01/12 01:38:20;;;;;;;7.40;1.87;;;7.70;99.90;;;8.14;100.00;98211.56;5056492;28;20464;-79
2023/01/12 01:40:50;;;;;;;11.40;3.03;;;7.80;99.90;;;8.13;100.00;98197.72;5056484;28;20473;-79
2023/01/12 01:43:23;;;;;;;7.23;2.40;;;7.70;99.90;;;8.12;100.00;98200.50;5058275;28;20460;-78
2023/01/12 01:46:06;;;;;;;6.50;2.00;;;7.70;99.90;;;8.09;100.00;98196.41;5054887;28;20499;-79
2023/01/12 01:48:39;;;;;;;10.73;2.40;;;7.70;99.90;;;8.10;100.00;98208.47;5054618;28;20471;-79
2023/01/12 01:51:13;;;;;;;13.70;4.70;;;7.70;99.90;;;8.10;100.00;98209.28;5056415;28;20471;-79
2023/01/12 01:53:46;;;;;;;16.37;2.80;;;7.70;99.90;;;8.13;100.00;98197.72;5054420;28;20545;-79
2023/01/12 01:56:25;;;;;;;10.00;2.37;;;7.70;99.90;;;8.07;100.00;98209.63;5055713;28;20479;-79
2023/01/12 01:59:05;;;;;;;10.57;2.30;;;7.60;99.90;;;8.09;100.00;98212.03;5051446;28;20475;-78
2023/01/12 02:01:36;;;;;;;9.10;1.97;;;7.70;99.90;;;8.07;100.00;98196.59;5052998;28;20560;-79
2023/01/12 02:04:06;;;;;;;8.83;1.80;;;7.60;99.90;;;8.05;100.00;98195.16;5054100;28;20493;-79
2023/01/12 02:06:37;;;;;;;6.03;1.70;;;7.60;99.90;;;8.05;100.00;98179.53;5055238;28;20545;-79
2023/01/12 02:09:12;;;;;;;12.77;2.10;;;7.50;99.90;;;8.07;100.00;98174.94;5053211;28;20549;-78
2023/01/12 02:17:38;;;;;;;8.03;2.00;;;7.60;99.90;;;8.12;100.00;98190.09;5054106;28;20477;-79
2023/01/12 02:20:48;;;;;;;7.10;1.93;;;7.70;99.90;;;8.13;100.00;98187.28;5057229;28;20460;-78
2023/01/12 02:24:07;;;;;;;4.93;1.73;;;7.70;99.90;;;8.09;100.00;98172.97;5054883;28;20476;-79
2023/01/12 02:27:20;;;;;;;6.17;1.70;;;7.70;99.90;;;8.09;100.00;98179.00;5054071;28;21133;-79
2023/01/12 02:31:00;;;;;;;7.40;1.97;;;7.70;99.90;;;8.10;100.00;98177.22;5047127;28;20471;-79
2023/01/12 02:34:09;;;;;;;9.93;2.10;;;7.70;99.90;;;8.10;100.00;98177.22;5052461;28;20558;-79
2023/01/12 02:36:54;;;;;;;4.80;1.53;;;7.70;99.90;;;8.07;100.00;98182.75;5053074;28;20900;-79
2023/01/12 02:39:33;;;;;;;5.50;1.40;;;7.60;99.90;;;8.07;100.00;98177.56;5054501;28;20464;-79
2023/01/12 02:45:15;;;;;;;9.57;1.63;;;7.60;99.90;;;8.05;100.00;98179.53;5053494;28;20464;-79
2023/01/12 02:47:53;;;;;;;10.00;1.77;;;7.70;99.90;;;8.06;100.00;98170.72;5054520;28;20556;-79
2023/01/12 02:50:33;;;;;;;6.57;1.83;;;7.70;99.90;;;8.03;100.00;98171.06;5053691;28;20879;-79
2023/01/12 02:53:10;;;;;;;2.30;1.83;;;7.60;99.90;;;8.07;100.00;98161.94;5053854;28;20503;-79
2023/01/12 02:55:42;;;;;;;4.33;2.10;;;7.70;99.90;;;8.06;100.00;98160.28;5052848;28;20492;-78
2023/01/12 02:58:19;;;;;;;2.37;1.17;;;7.60;99.90;;;8.05;100.00;98158.69;5058353;28;20494;-79
2023/01/12 03:00:53;;;;;;;5.63;1.80;;;7.70;99.90;;;8.05;100.00;98159.47;5054687;28;20538;-80
2023/01/12 03:03:24;;;;;;;8.83;1.83;;;7.70;99.90;;;8.02;100.00;98156.41;5057111;28;20464;-79
2023/01/12 03:06:00;;;;;;;9.90;1.97;;;7.60;99.90;;;8.04;100.00;98154.47;5060419;28;20475;-79
2023/01/12 03:08:32;;;;;;;5.57;1.60;;;7.60;99.90;;;8.06;100.00;98148.09;5055970;28;20541;-79
2023/01/12 03:11:13;;;;;;;5.67;1.53;;;7.60;99.90;;;8.06;100.00;98145.50;5056294;28;20965;-79
2023/01/12 03:13:49;;;;;;;4.17;1.70;;;7.60;99.90;;;8.06;100.00;98153.31;5057514;28;20468;-80
2023/01/12 03:16:25;;;;;;;3.93;1.60;;;7.60;99.90;;;8.08;100.00;98137.53;5055335;28;20582;-79
2023/01/12 03:19:02;;;;;;;4.00;1.70;;;7.70;99.90;;;8.05;100.00;98136.03;5056997;28;20902;-79
2023/01/12 03:21:39;;;;;;;4.60;1.87;;;7.70;99.90;;;8.07;100.00;98138.50;5058450;28;21420;-79
2023/01/12 03:24:13;;;;;;;6.90;2.10;;;7.60;99.90;;;8.08;100.00;98134.91;5061507;28;20463;-79
2023/01/12 03:26:48;;;;;;;7.53;1.60;;;7.70;99.90;;;8.07;100.00;98135.88;5056273;28;20987;-79
2023/01/12 03:29:27;;;;;;;5.00;1.40;;;7.60;99.90;;;8.08;100.00;98130.53;5059862;28;20466;-79
2023/01/12 03:31:58;;;;;;;9.70;1.97;;;7.60;99.90;;;8.08;100.00;98130.53;5059259;28;20467;-79
2023/01/12 03:34:29;;;;;;;6.47;1.50;;;7.60;99.90;;;8.06;100.00;98129.03;5057125;28;20896;-79
2023/01/12 03:37:08;;;;;;;10.90;1.90;;;7.60;99.90;;;8.07;100.00;98121.09;5058570;28;20459;-79
2023/01/12 03:39:52;;;;;;;7.67;1.77;;;7.60;99.90;;;8.07;100.00;98115.06;5056854;28;20486;-79
2023/01/12 03:42:32;;;;;;;3.23;1.43;;;7.60;99.90;;;8.09;100.00;98115.69;5056947;28;20461;-78
2023/01/12 03:45:16;;;;;;;8.40;2.03;;;7.70;99.90;;;8.10;100.00;98109.50;5056442;28;20499;-79
2023/01/12 03:47:55;;;;;;;3.10;1.47;;;7.60;99.90;;;8.13;100.00;98103.94;5056229;28;21013;-79
2023/01/12 03:50:38;;;;;;;5.43;1.77;;;7.70;99.90;;;8.08;100.00;98114.91;5056950;28;20461;-79
2023/01/12 03:53:10;;;;;;;34.17;1.90;;;7.70;99.90;;;8.06;100.00;98119.44;5057896;28;20479;-78
2023/01/12 03:55:42;;;;;;;6.67;1.77;;;7.70;99.90;;;8.02;100.00;98122.56;5057067;28;20485;-78
2023/01/12 03:58:11;;;;;;;7.33;1.80;;;7.60;99.90;;;8.00;100.00;98119.31;5055029;28;20481;-78
2023/01/12 04:00:42;;;;;;;10.27;3.67;;;7.60;99.90;;;8.02;100.00;98112.13;5057563;28;20492;-75
2023/01/12 04:03:14;;;;;;;7.37;2.00;;;7.60;99.90;;;8.03;100.00;98104.16;5055171;28;20487;-79
2023/01/12 04:05:45;;;;;;;6.00;1.43;;;7.60;99.90;;;8.01;100.00;98090.53;5057473;28;20464;-79
2023/01/12 04:08:17;;;;;;;2.80;2.03;;;7.60;99.90;;;8.03;100.00;98092.94;5055802;28;20536;-78
2023/01/12 04:10:47;;;;;;;5.73;1.60;;;7.60;99.90;;;8.04;100.00;98091.97;5055323;28;21071;-79
2023/01/12 04:13:19;;;;;;;7.57;3.13;;;7.60;99.90;;;8.01;100.00;98079.28;5056360;28;20833;-79
2023/01/12 04:15:50;;;;;;;10.47;1.80;;;7.60;99.90;;;8.05;100.00;98080.56;5056134;28;20477;-80
2023/01/12 04:18:20;;;;;;;7.40;2.73;;;7.60;99.90;;;8.07;100.00;98083.81;5055203;28;20564;-79
2023/01/12 04:20:50;;;;;;;4.70;1.87;;;7.70;99.90;;;8.05;100.00;98075.38;5057491;28;20576;-79
2023/01/12 04:23:21;;;;;;;5.73;1.80;;;7.60;99.90;;;8.06;100.00;98076.97;5055471;28;20469;-79
2023/01/12 04:25:52;;;;;;;8.33;1.80;;;7.70;99.90;;;8.05;100.00;98076.16;5057432;28;20834;-79
2023/01/12 04:28:22;;;;;;;6.57;1.80;;;7.60;99.90;;;8.02;100.00;98067.88;5060662;28;20465;-79
2023/01/12 04:30:53;;;;;;;7.23;1.77;;;7.60;99.90;;;8.02;100.00;98079.09;5054473;28;20471;-79
2023/01/12 04:33:24;;;;;;;8.23;1.33;;;7.60;99.90;;;8.06;100.00;98063.94;5057325;28;20449;-84
2023/01/12 04:35:53;;;;;;;8.40;2.20;;;7.60;99.90;;;8.07;100.00;98068.19;5053826;28;20524;-79
2023/01/12 04:38:25;;;;;;;12.00;2.87;;;7.60;99.90;;;8.08;100.00;98064.59;5058041;28;20457;-79
2023/01/12 04:40:55;;;;;;;10.97;1.67;;;7.60;99.90;;;8.09;100.00;98071.41;5057421;28;20484;-79
2023/01/12 04:43:24;;;;;;;4.77;1.40;;;7.60;99.90;;;8.07;100.00;98065.59;5058356;28;20534;-79
2023/01/12 04:45:54;;;;;;;15.23;2.93;;;7.60;99.90;;;8.09;100.00;98074.03;5057841;28;20473;-79
2023/01/12 04:48:24;;;;;;;6.20;2.03;;;7.70;99.90;;;8.07;100.00;98063.78;5058357;28;20465;-79
2023/01/12 04:50:54;;;;;;;5.80;2.00;;;7.70;99.90;;;8.07;100.00;98069.00;5059372;28;20460;-79
2023/01/12 04:53:26;;;;;;;66.77;29.07;;;7.60;99.90;;;8.05;100.00;98062.34;5055613;28;20479;-76
2023/01/12 04:55:56;;;;;;;2.90;1.90;;;7.60;99.90;;;8.06;100.00;98061.34;5056601;28;20583;-80
2023/01/12 04:58:25;;;;;;;2.77;1.30;;;7.60;99.90;;;8.07;100.00;98058.59;5058751;28;20464;-79
2023/01/12 05:00:56;;;;;;;2.53;1.10;;;7.60;99.90;;;8.08;100.00;98043.78;5058927;28;20522;-80
2023/01/12 05:03:26;;;;;;;5.40;1.60;;;7.70;99.90;;;8.07;100.00;98044.75;5058543;28;20464;-79
2023/01/12 05:05:54;;;;;;;4.10;1.40;;;7.60;99.90;;;8.06;100.00;98030.09;5056381;28;20519;-79
2023/01/12 05:11:13;;;;;;;6.53;1.53;;;7.70;99.90;;;8.06;100.00;98017.06;5056403;28;20784;-80
2023/01/12 05:13:43;;;;;;;4.77;1.70;;;7.60;99.90;;;8.07;100.00;98016.09;5056228;28;20547;-80
2023/01/12 05:16:15;;;;;;;11.33;1.70;;;7.60;99.90;;;8.00;100.00;98007.34;5055338;28;21029;-80
2023/01/12 05:18:47;;;;;;;10.93;2.53;;;7.60;99.90;;;8.00;100.00;98004.75;5056539;28;20940;-80
2023/01/12 05:21:17;;;;;;;2.23;1.33;;;7.60;99.90;;;8.03;100.00;97994.81;5056505;28;20570;-79
2023/01/12 05:23:49;;;;;;;30.77;14.33;;;7.60;99.90;;;8.04;100.00;98006.03;5056702;28;20490;-79
2023/01/12 05:26:19;;;;;;;6.47;2.27;;;7.60;99.90;;;8.06;100.00;98004.06;5059010;28;20519;-75
2023/01/12 05:28:50;;;;;;;3.17;1.83;;;7.60;99.90;;;8.07;100.00;97996.09;5057046;28;20483;-80
2023/01/12 05:31:20;;;;;;;8.03;2.07;;;7.70;99.90;;;8.05;100.00;97992.03;5056627;28;20895;-80
2023/01/12 05:33:49;;;;;;;13.40;2.40;;;7.60;99.90;;;8.07;100.00;97996.09;5057107;28;20568;-80
2023/01/12 05:36:19;;;;;;;8.30;1.80;;;7.60;99.90;;;8.09;100.00;97990.69;5057581;28;21205;-80
2023/01/12 05:38:49;;;;;;;22.83;2.53;;;7.60;99.90;;;8.10;100.00;97985.31;5058494;28;20463;-80
2023/01/12 05:41:21;;;;;;;10.30;2.17;;;7.70;99.90;;;8.07;100.00;97982.25;5056513;28;20599;-80
2023/01/12 05:43:50;;;;;;;16.43;2.70;;;7.70;99.90;;;8.06;100.00;97983.22;5057556;28;20465;-80
2023/01/12 05:46:23;;;;;;;10.93;2.40;;;7.60;99.90;;;8.08;100.00;97982.09;5058769;28;20884;-80
2023/01/12 05:48:55;;;;;;;9.93;2.13;;;7.70;99.90;;;8.06;100.00;97978.00;5057655;28;20460;-79
2023/01/12 05:51:29;;;;;;;12.47;2.40;;;7.60;99.90;;;8.07;100.00;97979.66;5060010;28;20465;-80
2023/01/12 05:54:01;;;;;;;9.87;2.33;;;7.70;99.90;;;8.10;100.00;97981.91;5055370;28;20497;-80
2023/01/12 05:56:32;;;;;;;17.70;2.63;;;7.60;99.90;;;8.03;100.00;97980.97;5056725;28;20546;-80
2023/01/12 05:59:04;;;;;;;8.07;1.90;;;7.50;99.90;;;8.06;100.00;97973.63;5057227;28;20460;-79
2023/01/12 06:01:33;;;;;;;12.93;2.67;;;7.60;99.90;;;8.09;100.00;97973.28;5057995;28;20546;-79
2023/01/12 06:04:03;;;;;;;6.03;2.00;;;7.70;99.90;;;8.09;100.00;97975.06;5058817;28;20543;-80
2023/01/12 06:06:34;;;;;;;12.43;2.20;;;7.70;99.90;;;8.03;100.00;97973.16;5058405;28;20467;-80
2023/01/12 06:09:04;;;;;;;10.87;1.60;;;7.60;99.90;;;8.07;100.00;97964.03;5056857;28;20489;-80
2023/01/12 06:14:22;;;;;;;10.67;2.40;;;7.60;99.90;;;8.04;100.00;97954.78;5057263;28;20464;-80
2023/01/12 06:16:51;;;;;;;5.23;1.90;;;7.60;99.90;;;8.10;100.00;97953.25;5056380;28;21293;-79
2023/01/12 06:19:21;;;;;;;9.17;1.60;;;7.60;99.90;;;8.10;100.00;97942.84;5057059;28;20457;-80
2023/01/12 06:21:53;;;;;;;12.60;2.90;;;7.60;99.90;;;8.10;100.00;97937.63;5055512;28;21018;-80
2023/01/12 06:24:24;;;;;;;7.13;1.97;;;7.60;99.90;;;8.14;100.00;97948.50;5056529;28;20555;-80
2023/01/12 06:26:55;;;;;;;9.50;2.10;;;7.70;99.90;;;8.13;100.00;97944.28;5056621;28;20587;-79
2023/01/12 06:29:24;;;;;;;12.40;1.80;;;7.70;99.90;;;8.14;100.00;97949.31;5057621;28;20464;-80
2023/01/12 06:31:54;;;;;;;4.93;1.43;;;7.70;99.90;;;8.14;100.00;97948.50;5055215;28;20580;-80
2023/01/12 06:34:25;;;;;;;4.77;1.70;;;7.70;99.90;;;8.09;100.00;97933.41;5052789;28;20600;-80
2023/01/12 06:36:55;;;;;;;5.83;1.60;;;7.60;99.90;;;8.07;100.00;97907.56;5055178;28;20538;-80
2023/01/12 06:39:27;;;;;;;9.20;1.80;;;7.60;99.90;;;8.08;100.00;97903.16;5058917;28;20456;-80
2023/01/12 06:44:45;;;;;;;5.80;1.53;;;7.60;99.90;;;8.10;100.00;97927.22;5055234;28;20969;-80
2023/01/12 06:47:17;;;;;;;12.63;1.97;;;7.70;99.90;;;8.10;100.00;97942.84;5056414;28;20555;-80
2023/01/12 06:49:50;;;;;;;7.10;1.60;;;7.70;99.90;;;8.09;100.00;97936.81;5058238;28;20590;-80
2023/01/12 06:52:21;;;;;;;6.23;1.57;;;7.60;99.90;;;8.06;100.00;97931.16;5056218;28;20503;-80
2023/01/12 06:54:52;;;;;;;5.17;1.90;;;7.50;99.90;;;8.09;100.00;97918.59;5059675;28;20466;-80
2023/01/12 06:57:23;;;;;;;7.60;1.67;;;7.60;99.90;;;8.13;100.00;97919.03;5056417;28;21034;-80
2023/01/12 06:59:52;;;;;;;7.43;2.03;;;7.70;99.90;;;8.16;100.00;97933.53;5057801;28;20468;-80
2023/01/12 07:02:23;;;;;;;8.30;1.30;;;7.70;99.90;;;8.10;100.00;97937.63;5055714;28;20974;-80
2023/01/12 07:04:54;;;;;;;9.27;1.40;;;7.60;99.90;;;8.14;100.00;97927.69;5056206;28;21261;-80
2023/01/12 07:07:24;;;;;;;3.37;1.40;;;7.70;99.90;;;8.13;100.00;97924.25;5057702;28;20548;-80
2023/01/12 07:09:55;;;;;;;4.50;1.33;;;7.70;99.90;;;8.17;100.00;97912.50;5059325;28;20453;-79
2023/01/12 07:12:25;;;;;;;3.87;1.23;;;7.70;99.90;;;8.15;100.00;97919.69;5055046;28;20461;-80
2023/01/12 07:14:58;;;;;;;1.87;1.00;;;7.70;99.90;;;8.20;100.00;97916.56;5054431;28;20962;-80
2023/01/12 07:17:27;;;;;;;3.73;1.17;;;7.80;99.90;;;8.15;100.00;97898.06;5053461;28;20591;-80
2023/01/12 07:19:56;;;;;;;5.53;1.13;;;7.70;99.90;;;8.17;100.00;97889.06;5053784;28;21312;-79
2023/01/12 07:22:25;;;;;;;15.87;1.47;;;7.70;99.90;;;8.17;100.00;97904.69;5054807;28;20460;-83
2023/01/12 07:24:56;;;;;;;3.10;1.20;;;7.70;99.90;;;8.17;100.00;97899.50;5053132;28;20491;-80
2023/01/12 07:27:26;;;;;;;2.87;1.23;;;7.70;99.90;;;8.17;100.00;97901.28;5054943;28;20469;-79
2023/01/12 07:29:57;;;;;;;7.83;1.70;;;7.70;99.90;;;8.19;100.00;97902.72;5054226;28;20546;-80
2023/01/12 07:32:28;;;;;;;3.50;1.77;;;7.70;99.90;;;8.21;100.00;97882.53;5053940;28;20468;-80
2023/01/12 07:34:58;;;;;;;3.60;1.10;;;7.80;99.90;;;8.20;100.00;97893.94;5053984;28;20539;-80
2023/01/12 07:37:27;;;;;;;5.43;1.33;;;7.80;99.90;;;8.22;100.00;97910.22;5054778;28;20579;-80
2023/01/12 07:39:59;;;;;;;8.60;2.00;;;7.80;99.90;;;8.26;100.00;97903.63;5058757;28;20862;-80
2023/01/12 07:42:28;;;;;;;4.57;1.20;;;7.80;99.90;;;8.25;100.00;97904.66;5055939;28;20467;-80
2023/01/12 07:44:58;;;;;;;1.43;1.20;;;7.80;99.90;;;8.21;100.00;97900.75;5060535;28;20452;-80
2023/01/12 07:47:28;;;;;;;2.20;1.43;;;7.80;99.90;;;8.26;100.00;97898.44;5061632;28;20533;-79
2023/01/12 07:49:58;;;;;;;4.43;1.80;;;7.80;99.90;;;8.28;100.00;97900.88;5061971;28;20456;-80
2023/01/12 07:52:28;;;;;;;4.57;1.63;;;7.90;99.90;;;8.29;100.00;97894.72;5060825;28;20552;-78
2023/01/12 07:54:59;;;;;;;3.80;1.50;;;7.90;99.90;;;8.28;100.00;97898.25;5059868;28;20464;-79
2023/01/12 07:57:30;;;;;;;4.17;1.53;;;7.80;99.90;;;8.26;100.00;97906.25;5061072;28;20475;-79
2023/01/12 08:00:00;;;;;;;2.07;1.20;;;7.80;99.90;;;8.28;100.00;97909.53;5061950;28;20517;-79
2023/01/12 08:02:30;;;;;;;7.53;1.33;;;7.80;99.90;;;8.29;100.00;97885.09;5059220;28;20464;-79
2023/01/12 08:04:59;;;;;;;9.10;1.73;;;7.80;99.90;;;8.31;100.00;97887.53;5059753;28;20452;-80
2023/01/12 08:07:32;;;;;;;2.43;1.43;;;7.90;99.90;;;8.31;100.00;97893.53;5059778;28;20464;-79
2023/01/12 08:10:03;;;;;;;2.10;0.97;;;7.90;99.90;;;8.33;100.00;97894.16;5059900;28;20468;-80
2023/01/12 08:12:34;;;;;;;7.23;1.53;;;7.90;99.90;;;8.35;100.00;97899.22;5058512;28;20458;-79
2023/01/12 08:15:07;;;;;;;8.53;1.57;;;7.90;99.90;;;8.32;100.00;97905.59;5058878;28;20464;-80
2023/01/12 08:17:42;;;;;;;4.57;1.30;;;7.90;99.90;;;8.32;100.00;97900.38;5060423;28;20496;-80
2023/01/12 08:20:18;;;;;;;3.73;0.90;;;7.90;99.90;;;8.33;100.00;97912.41;5056896;28;20504;-80
2023/01/12 08:22:53;;;;;;;6.37;1.50;;;7.90;99.90;;;8.35;100.00;97925.25;5058526;28;20503;-79
2023/01/12 08:25:30;;;;;;;7.73;1.17;;;7.90;99.90;;;8.35;100.00;97920.06;5058764;28;20483;-80
2023/01/12 08:28:08;;;;;;;2.87;1.13;;;7.90;99.90;;;8.35;100.00;97918.25;5058451;28;20469;-80
2023/01/12 08:30:37;;;;;;;2.07;1.23;;;8.00;99.90;;;8.34;100.00;97916.63;5059074;28;20543;-80
2023/01/12 08:33:07;;;;;;;2.00;1.30;;;7.90;99.90;;;8.37;100.00;97912.84;5058337;28;20461;-80
2023/01/12 08:35:38;;;;;;;3.20;1.30;;;7.90;99.90;;;8.38;100.00;97923.13;5059991;28;20499;-80
2023/01/12 08:38:07;;;;;;;4.23;1.40;;;7.90;99.90;;;8.39;100.00;97922.13;5061489;28;20609;-79
2023/01/12 08:46:11;;;;;;;4.77;1.57;;;8.00;99.90;;;8.42;100.00;97937.41;5059937;28;20460;-80
2023/01/12 08:48:40;;;;;;;7.27;1.27;;;8.00;99.90;;;8.41;100.00;97930.56;5058485;28;20892;-79
2023/01/12 08:51:10;;;;;;;2.80;1.20;;;8.00;99.90;;;8.42;100.00;97931.38;5057421;28;20563;-80
2023/01/12 08:53:40;;;;;;;6.20;1.10;;;8.00;99.90;;;8.43;100.00;97933.84;5058097;28;20892;-80
2023/01/12 08:56:11;;;;;;;6.87;1.53;;;8.00;99.90;;;8.44;100.00;97930.22;5060518;28;20487;-80
2023/01/12 08:58:41;;;;;;;1.73;1.10;;;8.00;99.90;;;8.45;100.00;97944.88;5060096;28;20495;-79
2023/01/12 09:01:13;;;;;;;1.20;0.90;;;8.00;99.90;;;8.45;100.00;97939.66;5058866;28;20968;-80
2023/01/12 09:03:44;;;;;;;2.57;1.10;;;8.00;99.90;;;8.47;100.00;97937.69;5059540;28;20510;-80
2023/01/12 09:06:17;;;;;;;3.53;1.13;;;8.00;99.90;;;8.47;100.00;97935.06;5059118;28;20468;-80
2023/01/12 09:08:47;;;;;;;6.37;1.30;;;8.00;99.90;;;8.48;100.00;97941.91;5057686;28;20493;-80
2023/01/12 09:11:18;;;;;;;2.50;1.00;;;8.00;99.90;;;8.50;100.00;97924.28;5058673;28;20492;-80
2023/01/12 09:13:48;;;;;;;11.00;2.03;;;8.00;99.90;;;8.53;100.00;97929.19;5057697;28;20497;-80
2023/01/12 09:16:20;;;;;;;2.30;1.43;;;8.10;99.90;;;8.54;100.00;97928.16;5056436;28;20544;-80
2023/01/12 09:18:49;;;;;;;5.53;0.90;;;8.10;99.90;;;8.53;100.00;97925.75;5057270;28;20546;-80
2023/01/12 09:21:22;;;;;;;3.40;1.70;;;8.10;99.90;;;8.56;100.00;97934.03;5055202;28;20564;-80
2023/01/12 09:23:52;;;;;;;2.33;1.20;;;8.20;99.90;;;8.57;100.00;97922.59;5057281;28;20464;-80
2023/01/12 09:26:27;;;;;;;4.00;1.83;;;8.20;99.90;;;8.55;100.00;97916.78;5057625;28;20460;-80
2023/01/12 09:28:58;;;;;;;4.60;1.50;;;8.20;99.90;;;8.55;100.00;97924.59;5058982;28;20540;-80
2023/01/12 09:31:28;;;;;;;0.90;0.70;;;8.10;99.90;;;8.53;100.00;97918.75;5057155;28;20960;-80
2023/01/12 09:33:59;;;;;;;1.20;0.83;;;8.00;99.90;;;8.57;100.00;97934.84;5060485;28;20491;-80
2023/01/12 09:36:32;;;;;;;1.70;0.80;;;8.20;99.90;;;8.56;100.00;97941.03;5059125;28;20490;-80
2023/01/12 09:39:03;;;;;;;4.30;1.37;;;8.20;99.90;;;8.56;100.00;97939.25;5058204;28;20496;-80
2023/01/12 09:47:34;;;;;;;1.60;1.03;;;8.10;99.90;;;8.61;100.00;97946.50;5058874;28;20500;-80
2023/01/12 09:50:11;;;;;;;2.50;1.20;;;8.20;99.90;;;8.63;100.00;97954.16;5057751;28;20468;-80
2023/01/12 09:52:48;;;;;;;4.30;1.20;;;8.20;99.90;;;8.65;100.00;97952.19;5060405;28;20456;-80
2023/01/12 09:55:22;;;;;;;2.50;1.37;;;8.20;99.90;;;8.67;100.00;97961.47;5055704;28;20468;-80
2023/01/12 09:58:37;;;;;;;1.83;0.90;;;8.30;99.90;;;8.68;100.00;97967.50;5058806;28;20492;-79
2023/01/12 10:01:13;;;;;;;4.30;1.17;;;8.30;99.90;;;8.68;100.00;97964.88;5058586;28;20469;-80
2023/01/12 10:03:59;;;;;;;4.17;1.53;;;8.30;99.90;;;8.67;100.00;97960.66;5055784;28;20464;-80
2023/01/12 10:06:29;;;;;;;3.70;0.93;;;8.20;99.90;;;8.69;100.00;97969.09;5055515;28;20944;-79
2023/01/12 10:09:02;;;;;;;5.47;1.43;;;8.20;99.90;;;8.70;100.00;97970.72;5057020;28;20456;-80
2023/01/12 10:11:43;;;;;;;2.07;0.97;;;8.30;99.90;;;8.68;100.00;97967.50;5056632;28;20460;-80
2023/01/12 10:14:58;;;;;;;2.50;1.20;;;8.20;99.90;;;8.70;100.00;97961.09;5056448;28;20468;-80
2023/01/12 10:17:41;;;;;;;4.93;1.00;;;8.20;99.90;;;8.72;100.00;97966.13;5054789;28;20551;-80
2023/01/12 10:20:29;;;;;;;3.37;1.30;;;8.30;99.90;;;8.73;100.00;97958.16;5056540;28;20491;-80
2023/01/12 10:23:13;;;;;;;4.73;1.73;;;8.30;99.90;;;8.73;100.00;97959.94;5056932;28;20456;-80
2023/01/12 10:25:46;;;;;;;2.17;1.10;;;8.30;99.90;;;8.75;100.00;97952.75;5057523;28;20470;-80
2023/01/12 10:28:22;;;;;;;1.93;0.90;;;8.30;99.90;;;8.77;100.00;97956.81;5057491;28;20472;-80
2023/01/12 10:30:55;;;;;;;4.00;1.20;;;8.40;99.90;;;8.76;100.00;97951.75;5059217;28;20460;-80
2023/01/12 10:33:27;;;;;;;0.70;0.70;;;8.40;99.90;;;8.76;100.00;97949.16;5055673;28;20461;-80
2023/01/12 10:36:01;;;;;;;2.47;0.90;;;8.30;99.90;;;8.73;100.00;97952.13;5056062;28;20859;-79
2023/01/12 10:38:36;;;;;;;2.17;1.10;;;8.30;99.90;;;8.75;100.00;97947.53;5057458;28;20565;-80
2023/01/12 10:41:16;;;;;;;2.13;1.10;;;8.30;99.90;;;8.76;100.00;97943.94;5058671;28;20491;-79
2023/01/12 10:44:07;;;;;;;3.17;1.17;;;8.30;99.90;;;8.78;100.00;97939.38;5057870;28;21033;-80
2023/01/12 10:46:38;;;;;;;3.73;0.87;;;8.30;99.90;;;8.75;100.00;97944.91;5056801;28;20772;-80
2023/01/12 10:49:20;;;;;;;5.00;1.13;;;8.20;99.90;;;8.78;100.00;97947.97;5055199;28;20461;-79
2023/01/12 10:51:56;;;;;;;3.90;1.20;;;8.30;99.90;;;8.80;100.00;97943.41;5055153;28;20464;-79
2023/01/12 10:54:30;;;;;;;3.20;1.37;;;8.30;99.90;;;8.81;100.00;97929.41;5055019;28;20540;-79
2023/01/12 10:57:06;;;;;;;5.03;1.50;;;8.40;99.90;;;8.84;100.00;97929.03;5056067;28;20506;-79
2023/01/12 10:59:39;;;;;;;2.80;1.10;;;8.40;99.90;;;8.84;100.00;97925.63;5055692;28;20496;-79
2023/01/12 11:02:16;;;;;;;2.87;1.03;;;8.40;99.90;;;8.88;100.00;97912.06;5056555;28;20561;-80
2023/01/12 11:04:48;;;;;;;2.53;1.20;;;8.50;99.90;;;8.90;100.00;97915.28;5056613;28;20464;-80
2023/01/12 11:07:20;;;;;;;5.17;1.07;;;8.50;99.90;;;8.93;100.00;97916.72;5058337;28;20548;-79
2023/01/12 11:09:50;;;;;;;3.63;1.20;;;8.50;99.90;;;8.91;100.00;97914.28;5055914;28;20477;-79
2023/01/12 11:12:25;;;;;;;5.70;1.60;;;8.50;99.90;;;8.90;100.00;97914.47;5056580;28;21278;-79
2023/01/12 11:15:15;;;;;;;1.73;1.20;;;8.50;99.90;;;8.89;100.00;97918.88;5053156;28;20522;-80
2023/01/12 11:18:07;;;;;;;2.47;1.00;;;8.50;99.90;;;8.92;100.00;97902.06;5057349;28;20535;-79
2023/01/12 11:20:43;;;;;;;1.80;1.00;;;8.50;99.90;;;8.93;100.00;97898.47;5061314;28;20541;-79
2023/01/12 11:23:25;;;;;;;7.73;1.40;;;8.50;99.90;;;8.94;100.00;97908.72;5059264;28;20487;-80